sensor_id;sensor_type;location;lat;lon;timestamp;temperature;humidity
53314;DHT22;39202;51.468;7.146;2023-07-30T00:01:26;29.00;44.30
53314;DHT22;39202;51.468;7.146;2023-07-30T00:06:29;29.00;44.30
53314;DHT22;39202;51.468;7.146;2023-07-30T00:11:31;29.00;44.40
53314;DHT22;39202;51.468;7.146;2023-07-30T00:16:32;29.00;44.40
53314;DHT22;39202;51.468;7.146;2023-07-30T00:21:35;29.00;44.40
53314;DHT22;39202;51.468;7.146;2023-07-30T00:26:37;29.00;44.40
53314;DHT22;39202;51.468;7.146;2023-07-30T00:31:39;29.00;44.40
53314;DHT22;39202;51.468;7.146;2023-07-30T00:36:42;28.90;44.30
53314;DHT22;39202;51.468;7.146;2023-07-30T00:41:44;28.90;44.40
53314;DHT22;39202;51.468;7.146;2023-07-30T00:46:46;28.90;44.40
53314;DHT22;39202;51.468;7.146;2023-07-30T00:51:49;28.90;44.40
53314;DHT22;39202;51.468;7.146;2023-07-30T00:56:52;28.90;44.40
53314;DHT22;39202;51.468;7.146;2023-07-30T01:01:56;28.90;44.40
53314;DHT22;39202;51.468;7.146;2023-07-30T01:07:00;28.90;44.40
53314;DHT22;39202;51.468;7.146;2023-07-30T01:12:02;28.90;44.40
53314;DHT22;39202;51.468;7.146;2023-07-30T01:17:04;28.90;44.50
53314;DHT22;39202;51.468;7.146;2023-07-30T01:22:07;28.90;44.50
53314;DHT22;39202;51.468;7.146;2023-07-30T01:27:22;28.90;44.50
53314;DHT22;39202;51.468;7.146;2023-07-30T01:32:26;28.90;44.50
53314;DHT22;39202;51.468;7.146;2023-07-30T01:37:30;28.80;44.40
53314;DHT22;39202;51.468;7.146;2023-07-30T01:42:32;28.80;44.40
53314;DHT22;39202;51.468;7.146;2023-07-30T01:47:34;28.80;44.40
53314;DHT22;39202;51.468;7.146;2023-07-30T01:52:37;28.80;44.40
53314;DHT22;39202;51.468;7.146;2023-07-30T01:57:39;28.80;44.40
53314;DHT22;39202;51.468;7.146;2023-07-30T02:02:41;28.80;44.40
53314;DHT22;39202;51.468;7.146;2023-07-30T02:07:44;28.80;44.40
53314;DHT22;39202;51.468;7.146;2023-07-30T02:12:45;28.70;44.40
53314;DHT22;39202;51.468;7.146;2023-07-30T02:17:47;28.80;44.40
53314;DHT22;39202;51.468;7.146;2023-07-30T02:22:50;28.70;44.40
53314;DHT22;39202;51.468;7.146;2023-07-30T02:27:52;28.70;44.40
53314;DHT22;39202;51.468;7.146;2023-07-30T02:32:54;28.70;44.40
53314;DHT22;39202;51.468;7.146;2023-07-30T02:37:57;28.70;44.40
53314;DHT22;39202;51.468;7.146;2023-07-30T02:42:58;28.70;44.40
53314;DHT22;39202;51.468;7.146;2023-07-30T02:48:00;28.70;44.40
53314;DHT22;39202;51.468;7.146;2023-07-30T02:53:03;28.70;44.40
53314;DHT22;39202;51.468;7.146;2023-07-30T02:58:05;28.70;44.50
53314;DHT22;39202;51.468;7.146;2023-07-30T03:03:06;28.70;44.50
53314;DHT22;39202;51.468;7.146;2023-07-30T03:08:10;28.70;44.50
53314;DHT22;39202;51.468;7.146;2023-07-30T03:13:11;28.70;44.50
53314;DHT22;39202;51.468;7.146;2023-07-30T03:18:13;28.70;44.50
53314;DHT22;39202;51.468;7.146;2023-07-30T03:23:16;28.60;44.40
53314;DHT22;39202;51.468;7.146;2023-07-30T03:28:18;28.60;44.40
53314;DHT22;39202;51.468;7.146;2023-07-30T03:33:20;28.60;44.40
53314;DHT22;39202;51.468;7.146;2023-07-30T03:38:23;28.60;44.40
53314;DHT22;39202;51.468;7.146;2023-07-30T03:43:25;28.60;44.40
53314;DHT22;39202;51.468;7.146;2023-07-30T03:48:26;28.60;44.40
53314;DHT22;39202;51.468;7.146;2023-07-30T03:53:29;28.60;44.50
53314;DHT22;39202;51.468;7.146;2023-07-30T03:58:31;28.60;44.50
53314;DHT22;39202;51.468;7.146;2023-07-30T04:03:33;28.60;44.50
53314;DHT22;39202;51.468;7.146;2023-07-30T04:08:36;28.60;44.50
53314;DHT22;39202;51.468;7.146;2023-07-30T04:13:37;28.60;44.50
53314;DHT22;39202;51.468;7.146;2023-07-30T04:18:41;28.50;44.40
53314;DHT22;39202;51.468;7.146;2023-07-30T04:23:44;28.50;44.40
53314;DHT22;39202;51.468;7.146;2023-07-30T04:28:46;28.60;44.50
53314;DHT22;39202;51.468;7.146;2023-07-30T04:33:47;28.50;44.40
53314;DHT22;39202;51.468;7.146;2023-07-30T04:38:50;28.60;44.40
53314;DHT22;39202;51.468;7.146;2023-07-30T04:43:52;28.60;44.40
53314;DHT22;39202;51.468;7.146;2023-07-30T04:48:54;28.50;44.40
53314;DHT22;39202;51.468;7.146;2023-07-30T04:53:57;28.50;44.40
53314;DHT22;39202;51.468;7.146;2023-07-30T04:59:00;28.50;44.40
53314;DHT22;39202;51.468;7.146;2023-07-30T05:04:02;28.50;44.50
53314;DHT22;39202;51.468;7.146;2023-07-30T05:09:05;28.50;44.50
53314;DHT22;39202;51.468;7.146;2023-07-30T05:14:07;28.50;44.50
53314;DHT22;39202;51.468;7.146;2023-07-30T05:19:08;28.50;44.50
53314;DHT22;39202;51.468;7.146;2023-07-30T05:24:11;28.50;44.50
53314;DHT22;39202;51.468;7.146;2023-07-30T05:29:13;28.50;44.50
53314;DHT22;39202;51.468;7.146;2023-07-30T05:34:15;28.50;44.50
53314;DHT22;39202;51.468;7.146;2023-07-30T05:39:18;28.40;44.50
53314;DHT22;39202;51.468;7.146;2023-07-30T05:44:20;28.50;44.50
53314;DHT22;39202;51.468;7.146;2023-07-30T05:49:21;28.50;44.50
53314;DHT22;39202;51.468;7.146;2023-07-30T05:54:24;28.50;44.50
53314;DHT22;39202;51.468;7.146;2023-07-30T05:59:26;28.40;44.50
53314;DHT22;39202;51.468;7.146;2023-07-30T06:04:28;28.40;44.50
53314;DHT22;39202;51.468;7.146;2023-07-30T06:09:31;28.50;44.50
53314;DHT22;39202;51.468;7.146;2023-07-30T06:14:33;28.50;44.50
53314;DHT22;39202;51.468;7.146;2023-07-30T06:19:34;28.40;44.50
53314;DHT22;39202;51.468;7.146;2023-07-30T06:24:38;28.50;44.50
53314;DHT22;39202;51.468;7.146;2023-07-30T06:29:39;28.40;44.50
53314;DHT22;39202;51.468;7.146;2023-07-30T06:34:41;28.40;44.50
53314;DHT22;39202;51.468;7.146;2023-07-30T06:39:44;28.40;44.50
53314;DHT22;39202;51.468;7.146;2023-07-30T06:44:46;28.50;44.40
53314;DHT22;39202;51.468;7.146;2023-07-30T06:49:48;28.40;44.20
53314;DHT22;39202;51.468;7.146;2023-07-30T06:54:51;28.40;44.20
53314;DHT22;39202;51.468;7.146;2023-07-30T06:59:53;28.40;44.00
53314;DHT22;39202;51.468;7.146;2023-07-30T07:04:55;28.40;44.20
53314;DHT22;39202;51.468;7.146;2023-07-30T07:09:58;28.40;43.90
53314;DHT22;39202;51.468;7.146;2023-07-30T07:15:14;28.40;43.90
53314;DHT22;39202;51.468;7.146;2023-07-30T07:20:20;28.40;43.90
53314;DHT22;39202;51.468;7.146;2023-07-30T07:25:29;28.40;43.60
53314;DHT22;39202;51.468;7.146;2023-07-30T07:30:34;28.40;44.20
53314;DHT22;39202;51.468;7.146;2023-07-30T07:35:41;28.40;44.40
53314;DHT22;39202;51.468;7.146;2023-07-30T07:40:46;28.40;44.00
53314;DHT22;39202;51.468;7.146;2023-07-30T07:45:48;28.40;43.70
53314;DHT22;39202;51.468;7.146;2023-07-30T07:50:50;28.40;44.10
53314;DHT22;39202;51.468;7.146;2023-07-30T07:55:53;28.50;44.50
53314;DHT22;39202;51.468;7.146;2023-07-30T08:00:54;28.40;44.50
53314;DHT22;39202;51.468;7.146;2023-07-30T08:05:56;28.40;44.50
53314;DHT22;39202;51.468;7.146;2023-07-30T08:11:04;28.50;44.50
53314;DHT22;39202;51.468;7.146;2023-07-30T08:16:06;28.50;44.50
53314;DHT22;39202;51.468;7.146;2023-07-30T08:21:08;28.50;44.50
53314;DHT22;39202;51.468;7.146;2023-07-30T08:26:11;28.50;44.50
53314;DHT22;39202;51.468;7.146;2023-07-30T08:31:13;28.50;44.50
53314;DHT22;39202;51.468;7.146;2023-07-30T08:36:15;28.50;44.50
53314;DHT22;39202;51.468;7.146;2023-07-30T08:41:18;28.50;44.50
53314;DHT22;39202;51.468;7.146;2023-07-30T08:46:20;28.50;45.20
53314;DHT22;39202;51.468;7.146;2023-07-30T08:51:22;28.50;45.10
53314;DHT22;39202;51.468;7.146;2023-07-30T08:56:26;28.50;44.50
53314;DHT22;39202;51.468;7.146;2023-07-30T09:01:30;28.60;44.50
53314;DHT22;39202;51.468;7.146;2023-07-30T09:06:35;28.60;44.50
53314;DHT22;39202;51.468;7.146;2023-07-30T09:11:40;28.70;44.60
53314;DHT22;39202;51.468;7.146;2023-07-30T09:16:42;28.80;44.60
53314;DHT22;39202;51.468;7.146;2023-07-30T09:21:44;28.70;44.50
53314;DHT22;39202;51.468;7.146;2023-07-30T09:26:47;28.70;44.50
53314;DHT22;39202;51.468;7.146;2023-07-30T09:31:50;28.90;44.60
53314;DHT22;39202;51.468;7.146;2023-07-30T09:36:54;28.70;44.50
53314;DHT22;39202;51.468;7.146;2023-07-30T09:42:00;28.80;44.50
53314;DHT22;39202;51.468;7.146;2023-07-30T09:47:02;28.90;44.50
53314;DHT22;39202;51.468;7.146;2023-07-30T09:52:06;28.90;44.50
53314;DHT22;39202;51.468;7.146;2023-07-30T09:57:09;29.00;44.60
53314;DHT22;39202;51.468;7.146;2023-07-30T10:02:12;29.00;44.50
53314;DHT22;39202;51.468;7.146;2023-07-30T10:07:17;29.10;44.60
53314;DHT22;39202;51.468;7.146;2023-07-30T10:12:25;29.10;44.50
53314;DHT22;39202;51.468;7.146;2023-07-30T10:17:28;29.20;44.60
53314;DHT22;39202;51.468;7.146;2023-07-30T10:22:33;29.30;44.60
53314;DHT22;39202;51.468;7.146;2023-07-30T10:27:38;29.30;44.50
53314;DHT22;39202;51.468;7.146;2023-07-30T10:32:41;29.40;44.50
53314;DHT22;39202;51.468;7.146;2023-07-30T10:37:45;29.50;44.40
53314;DHT22;39202;51.468;7.146;2023-07-30T10:42:50;29.50;44.40
53314;DHT22;39202;51.468;7.146;2023-07-30T10:47:52;29.50;44.20
53314;DHT22;39202;51.468;7.146;2023-07-30T10:52:54;29.60;44.10
53314;DHT22;39202;51.468;7.146;2023-07-30T10:57:57;29.60;44.00
53314;DHT22;39202;51.468;7.146;2023-07-30T11:02:59;29.60;43.90
53314;DHT22;39202;51.468;7.146;2023-07-30T11:08:01;29.60;43.90
53314;DHT22;39202;51.468;7.146;2023-07-30T11:13:04;29.60;43.80
53314;DHT22;39202;51.468;7.146;2023-07-30T11:18:05;29.60;44.00
53314;DHT22;39202;51.468;7.146;2023-07-30T11:23:20;29.60;44.00
53314;DHT22;39202;51.468;7.146;2023-07-30T11:28:30;29.70;44.00
53314;DHT22;39202;51.468;7.146;2023-07-30T11:33:32;29.70;43.90
53314;DHT22;39202;51.468;7.146;2023-07-30T11:38:35;29.70;43.90
53314;DHT22;39202;51.468;7.146;2023-07-30T11:43:39;29.70;43.90
53314;DHT22;39202;51.468;7.146;2023-07-30T11:48:43;29.80;43.80
53314;DHT22;39202;51.468;7.146;2023-07-30T11:53:46;29.70;43.80
53314;DHT22;39202;51.468;7.146;2023-07-30T11:58:53;29.70;43.80
53314;DHT22;39202;51.468;7.146;2023-07-30T12:03:56;29.70;43.70
53314;DHT22;39202;51.468;7.146;2023-07-30T12:08:58;29.70;43.70
53314;DHT22;39202;51.468;7.146;2023-07-30T12:14:01;29.80;43.80
53314;DHT22;39202;51.468;7.146;2023-07-30T12:19:03;29.80;43.80
53314;DHT22;39202;51.468;7.146;2023-07-30T12:24:06;29.80;43.70
53314;DHT22;39202;51.468;7.146;2023-07-30T12:29:09;29.90;43.80
53314;DHT22;39202;51.468;7.146;2023-07-30T12:34:10;29.90;43.70
53314;DHT22;39202;51.468;7.146;2023-07-30T12:39:13;29.90;43.70
53314;DHT22;39202;51.468;7.146;2023-07-30T12:44:16;30.00;43.70
53314;DHT22;39202;51.468;7.146;2023-07-30T12:49:18;30.00;43.70
53314;DHT22;39202;51.468;7.146;2023-07-30T12:54:19;30.00;43.70
53314;DHT22;39202;51.468;7.146;2023-07-30T12:59:22;30.00;43.70
53314;DHT22;39202;51.468;7.146;2023-07-30T13:04:24;30.00;43.60
53314;DHT22;39202;51.468;7.146;2023-07-30T13:09:28;30.10;43.80
53314;DHT22;39202;51.468;7.146;2023-07-30T13:14:31;30.10;43.60
53314;DHT22;39202;51.468;7.146;2023-07-30T13:19:32;30.10;43.50
53314;DHT22;39202;51.468;7.146;2023-07-30T13:24:35;30.10;43.50
53314;DHT22;39202;51.468;7.146;2023-07-30T13:29:38;30.10;43.50
53314;DHT22;39202;51.468;7.146;2023-07-30T13:34:40;30.10;43.50
53314;DHT22;39202;51.468;7.146;2023-07-30T13:39:42;30.10;43.50
53314;DHT22;39202;51.468;7.146;2023-07-30T13:44:45;30.10;43.50
53314;DHT22;39202;51.468;7.146;2023-07-30T13:49:46;30.10;43.50
53314;DHT22;39202;51.468;7.146;2023-07-30T13:54:49;30.10;43.50
53314;DHT22;39202;51.468;7.146;2023-07-30T13:59:52;30.20;43.50
53314;DHT22;39202;51.468;7.146;2023-07-30T14:04:54;30.20;43.40
53314;DHT22;39202;51.468;7.146;2023-07-30T14:09:55;30.20;43.40
53314;DHT22;39202;51.468;7.146;2023-07-30T14:14:58;30.20;43.40
53314;DHT22;39202;51.468;7.146;2023-07-30T14:20:00;30.20;43.40
53314;DHT22;39202;51.468;7.146;2023-07-30T14:25:02;30.20;43.40
53314;DHT22;39202;51.468;7.146;2023-07-30T14:30:08;30.20;43.40
53314;DHT22;39202;51.468;7.146;2023-07-30T14:35:10;30.10;43.20
53314;DHT22;39202;51.468;7.146;2023-07-30T14:40:11;30.10;43.20
53314;DHT22;39202;51.468;7.146;2023-07-30T14:45:15;30.10;43.20
53314;DHT22;39202;51.468;7.146;2023-07-30T14:50:16;30.10;43.20
53314;DHT22;39202;51.468;7.146;2023-07-30T14:55:18;30.10;43.80
53314;DHT22;39202;51.468;7.146;2023-07-30T15:00:22;30.20;43.30
53314;DHT22;39202;51.468;7.146;2023-07-30T15:05:23;30.10;43.20
53314;DHT22;39202;51.468;7.146;2023-07-30T15:10:25;30.10;43.20
53314;DHT22;39202;51.468;7.146;2023-07-30T15:15:28;30.10;43.20
53314;DHT22;39202;51.468;7.146;2023-07-30T15:20:30;30.10;43.20
53314;DHT22;39202;51.468;7.146;2023-07-30T15:25:32;30.10;43.30
53314;DHT22;39202;51.468;7.146;2023-07-30T15:30:36;30.00;43.30
53314;DHT22;39202;51.468;7.146;2023-07-30T15:35:38;30.10;43.40
53314;DHT22;39202;51.468;7.146;2023-07-30T15:40:40;30.10;43.50
53314;DHT22;39202;51.468;7.146;2023-07-30T15:45:44;30.10;43.40
53314;DHT22;39202;51.468;7.146;2023-07-30T15:50:46;30.10;43.40
53314;DHT22;39202;51.468;7.146;2023-07-30T15:55:48;30.10;43.40
53314;DHT22;39202;51.468;7.146;2023-07-30T16:00:51;30.10;43.40
53314;DHT22;39202;51.468;7.146;2023-07-30T16:05:53;30.10;43.40
53314;DHT22;39202;51.468;7.146;2023-07-30T16:11:00;30.10;43.40
53314;DHT22;39202;51.468;7.146;2023-07-30T16:16:12;30.10;43.40
53314;DHT22;39202;51.468;7.146;2023-07-30T16:21:14;30.00;43.30
53314;DHT22;39202;51.468;7.146;2023-07-30T16:26:15;30.00;43.30
53314;DHT22;39202;51.468;7.146;2023-07-30T16:31:18;30.10;43.30
53314;DHT22;39202;51.468;7.146;2023-07-30T16:36:20;30.00;43.30
53314;DHT22;39202;51.468;7.146;2023-07-30T16:41:22;30.00;43.30
53314;DHT22;39202;51.468;7.146;2023-07-30T16:46:25;30.00;43.30
53314;DHT22;39202;51.468;7.146;2023-07-30T16:51:27;30.00;43.30
53314;DHT22;39202;51.468;7.146;2023-07-30T16:56:28;30.00;43.30
53314;DHT22;39202;51.468;7.146;2023-07-30T17:01:32;30.00;43.30
53314;DHT22;39202;51.468;7.146;2023-07-30T17:06:33;29.90;43.20
53314;DHT22;39202;51.468;7.146;2023-07-30T17:11:36;29.90;43.20
53314;DHT22;39202;51.468;7.146;2023-07-30T17:16:40;29.90;43.20
53314;DHT22;39202;51.468;7.146;2023-07-30T17:21:42;29.90;43.30
53314;DHT22;39202;51.468;7.146;2023-07-30T17:26:44;29.90;43.20
53314;DHT22;39202;51.468;7.146;2023-07-30T17:31:47;29.90;43.20
53314;DHT22;39202;51.468;7.146;2023-07-30T17:36:48;29.90;43.20
53314;DHT22;39202;51.468;7.146;2023-07-30T17:41:50;29.90;43.20
53314;DHT22;39202;51.468;7.146;2023-07-30T17:46:53;29.80;43.20
53314;DHT22;39202;51.468;7.146;2023-07-30T17:51:55;29.80;43.20
53314;DHT22;39202;51.468;7.146;2023-07-30T17:56:56;29.80;43.20
53314;DHT22;39202;51.468;7.146;2023-07-30T18:01:59;29.80;43.20
53314;DHT22;39202;51.468;7.146;2023-07-30T18:07:01;29.80;43.20
53314;DHT22;39202;51.468;7.146;2023-07-30T18:12:05;29.80;43.20
53314;DHT22;39202;51.468;7.146;2023-07-30T18:17:08;29.80;43.20
53314;DHT22;39202;51.468;7.146;2023-07-30T18:22:09;29.80;43.20
53314;DHT22;39202;51.468;7.146;2023-07-30T18:27:11;29.80;43.20
53314;DHT22;39202;51.468;7.146;2023-07-30T18:32:14;29.80;43.20
53314;DHT22;39202;51.468;7.146;2023-07-30T18:37:16;29.70;43.20
53314;DHT22;39202;51.468;7.146;2023-07-30T18:42:18;29.70;43.20
53314;DHT22;39202;51.468;7.146;2023-07-30T18:47:21;29.70;43.20
53314;DHT22;39202;51.468;7.146;2023-07-30T18:52:23;29.70;43.20
53314;DHT22;39202;51.468;7.146;2023-07-30T18:57:25;29.70;43.20
53314;DHT22;39202;51.468;7.146;2023-07-30T19:02:28;29.60;43.20
53314;DHT22;39202;51.468;7.146;2023-07-30T19:07:30;29.60;43.20
53314;DHT22;39202;51.468;7.146;2023-07-30T19:12:32;29.70;43.30
53314;DHT22;39202;51.468;7.146;2023-07-30T19:17:35;29.60;43.20
53314;DHT22;39202;51.468;7.146;2023-07-30T19:22:36;29.60;43.30
53314;DHT22;39202;51.468;7.146;2023-07-30T19:27:38;29.60;43.30
53314;DHT22;39202;51.468;7.146;2023-07-30T19:32:41;29.60;43.30
53314;DHT22;39202;51.468;7.146;2023-07-30T19:37:43;29.60;43.40
53314;DHT22;39202;51.468;7.146;2023-07-30T19:42:45;29.60;43.40
53314;DHT22;39202;51.468;7.146;2023-07-30T19:47:48;29.60;44.00
53314;DHT22;39202;51.468;7.146;2023-07-30T19:52:50;29.50;43.30
53314;DHT22;39202;51.468;7.146;2023-07-30T19:57:52;29.50;43.30
53314;DHT22;39202;51.468;7.146;2023-07-30T20:02:55;29.50;44.00
53314;DHT22;39202;51.468;7.146;2023-07-30T20:07:57;29.50;43.40
53314;DHT22;39202;51.468;7.146;2023-07-30T20:12:59;29.50;43.40
53314;DHT22;39202;51.468;7.146;2023-07-30T20:18:02;29.50;43.40
53314;DHT22;39202;51.468;7.146;2023-07-30T20:23:04;29.50;43.40
53314;DHT22;39202;51.468;7.146;2023-07-30T20:28:07;29.50;44.10
53314;DHT22;39202;51.468;7.146;2023-07-30T20:33:10;29.40;43.40
53314;DHT22;39202;51.468;7.146;2023-07-30T20:38:11;29.40;43.40
53314;DHT22;39202;51.468;7.146;2023-07-30T20:43:13;29.40;43.40
53314;DHT22;39202;51.468;7.146;2023-07-30T20:48:16;29.40;43.40
53314;DHT22;39202;51.468;7.146;2023-07-30T20:53:18;29.40;43.40
53314;DHT22;39202;51.468;7.146;2023-07-30T20:58:20;29.40;43.40
53314;DHT22;39202;51.468;7.146;2023-07-30T21:03:24;29.40;43.40
53314;DHT22;39202;51.468;7.146;2023-07-30T21:08:26;29.40;43.50
53314;DHT22;39202;51.468;7.146;2023-07-30T21:13:28;29.30;43.40
53314;DHT22;39202;51.468;7.146;2023-07-30T21:18:31;29.30;43.40
53314;DHT22;39202;51.468;7.146;2023-07-30T21:23:33;29.30;43.50
53314;DHT22;39202;51.468;7.146;2023-07-30T21:28:35;29.30;43.50
53314;DHT22;39202;51.468;7.146;2023-07-30T21:33:38;29.30;43.50
53314;DHT22;39202;51.468;7.146;2023-07-30T21:38:39;29.30;43.50
53314;DHT22;39202;51.468;7.146;2023-07-30T21:43:41;29.30;43.50
53314;DHT22;39202;51.468;7.146;2023-07-30T21:48:44;29.30;43.50
53314;DHT22;39202;51.468;7.146;2023-07-30T21:53:46;29.30;43.50
53314;DHT22;39202;51.468;7.146;2023-07-30T21:58:48;29.20;43.50
53314;DHT22;39202;51.468;7.146;2023-07-30T22:03:51;29.20;43.50
53314;DHT22;39202;51.468;7.146;2023-07-30T22:08:53;29.20;43.50
53314;DHT22;39202;51.468;7.146;2023-07-30T22:13:55;29.20;43.50
53314;DHT22;39202;51.468;7.146;2023-07-30T22:18:58;29.20;43.50
53314;DHT22;39202;51.468;7.146;2023-07-30T22:24:00;29.20;43.50
53314;DHT22;39202;51.468;7.146;2023-07-30T22:29:02;29.20;43.60
53314;DHT22;39202;51.468;7.146;2023-07-30T22:34:05;29.20;43.60
53314;DHT22;39202;51.468;7.146;2023-07-30T22:39:06;29.10;43.50
53314;DHT22;39202;51.468;7.146;2023-07-30T22:44:08;29.10;43.50
53314;DHT22;39202;51.468;7.146;2023-07-30T22:49:11;29.30;43.70
53314;DHT22;39202;51.468;7.146;2023-07-30T22:54:13;29.10;43.60
53314;DHT22;39202;51.468;7.146;2023-07-30T22:59:15;29.10;43.60
53314;DHT22;39202;51.468;7.146;2023-07-30T23:04:18;29.10;43.60
53314;DHT22;39202;51.468;7.146;2023-07-30T23:09:21;29.10;43.60
53314;DHT22;39202;51.468;7.146;2023-07-30T23:14:23;29.10;43.60
53314;DHT22;39202;51.468;7.146;2023-07-30T23:19:26;29.00;43.50
53314;DHT22;39202;51.468;7.146;2023-07-30T23:24:27;29.00;43.50
53314;DHT22;39202;51.468;7.146;2023-07-30T23:29:29;29.00;43.50
53314;DHT22;39202;51.468;7.146;2023-07-30T23:34:33;29.00;43.50
53314;DHT22;39202;51.468;7.146;2023-07-30T23:39:34;29.00;43.60
53314;DHT22;39202;51.468;7.146;2023-07-30T23:44:36;29.00;43.60
53314;DHT22;39202;51.468;7.146;2023-07-30T23:49:39;29.00;43.60
53314;DHT22;39202;51.468;7.146;2023-07-30T23:54:41;29.00;43.60
53314;DHT22;39202;51.468;7.146;2023-07-30T23:59:42;29.00;43.60
